createdAt,value
2023-05-05T00:00:16.917Z,12.50
2023-05-05T00:03:03.596Z,12.46
2023-05-05T00:05:30.207Z,12.42
2023-05-05T00:08:01.411Z,12.39
2023-05-05T00:10:32.722Z,12.37
2023-05-05T00:12:59.117Z,12.36
2023-05-05T00:15:26.826Z,12.34
2023-05-05T00:17:55.647Z,12.32
2023-05-05T00:20:22.360Z,12.29
2023-05-05T00:22:53.868Z,12.25
2023-05-05T00:25:20.291Z,12.23
2023-05-05T00:27:46.722Z,12.23
2023-05-05T00:30:15.447Z,12.21
2023-05-05T00:32:46.649Z,12.22
2023-05-05T00:35:15.390Z,12.19
2023-05-05T00:37:44.528Z,12.14
2023-05-05T00:40:13.421Z,12.12
2023-05-05T00:42:45.241Z,12.10
2023-05-05T00:45:20.556Z,12.07
2023-05-05T00:47:56.267Z,12.05
2023-05-05T00:50:28.643Z,12.03
2023-05-05T00:53:06.379Z,12.02
2023-05-05T00:55:36.130Z,12.02
2023-05-05T00:58:03.621Z,12.01
2023-05-05T01:00:37.704Z,11.99
2023-05-05T01:03:06.789Z,11.96
2023-05-05T01:05:55.702Z,11.92
2023-05-05T01:08:41.964Z,11.90
2023-05-05T05:40:22.265Z,12.03
2023-05-05T05:42:51.302Z,12.06
2023-05-05T05:45:21.091Z,12.09
2023-05-05T05:47:50.387Z,12.12
2023-05-05T05:50:19.944Z,12.15
2023-05-05T05:52:46.747Z,12.18
2023-05-05T05:55:18.052Z,12.22
2023-05-05T05:57:47.211Z,12.24
2023-05-05T06:00:16.296Z,12.28
2023-05-05T06:02:44.792Z,12.33
2023-05-05T06:05:14.201Z,12.36
2023-05-05T06:07:41.809Z,12.38
2023-05-05T06:10:25.780Z,12.40
2023-05-05T06:12:59.235Z,12.44
2023-05-05T06:15:26.523Z,12.50
2023-05-05T06:17:55.722Z,12.55
2023-05-05T06:20:22.594Z,12.57
2023-05-05T06:22:49.322Z,12.61
2023-05-05T06:25:17.327Z,12.66
2023-05-05T06:27:48.335Z,12.71
2023-05-05T06:30:14.900Z,12.78
2023-05-05T06:32:41.509Z,12.85
2023-05-05T06:35:08.603Z,12.93
2023-05-05T06:37:37.392Z,13.06
2023-05-05T06:40:04.416Z,13.15
2023-05-05T06:42:31.673Z,13.22
2023-05-05T06:45:00.805Z,13.28
2023-05-05T06:47:35.205Z,13.37
2023-05-05T06:50:05.387Z,13.44
2023-05-05T06:52:31.965Z,13.48
2023-05-05T06:54:58.705Z,13.51
2023-05-05T06:57:30.278Z,13.55
2023-05-05T06:59:56.668Z,13.61
2023-05-05T07:02:26.834Z,13.65
2023-05-05T07:04:54.740Z,13.70
2023-05-05T07:07:23.290Z,13.76
2023-05-05T07:09:52.439Z,13.82
2023-05-05T07:12:19.186Z,13.88
2023-05-05T07:14:47.959Z,13.97
2023-05-05T07:17:14.442Z,14.05
2023-05-05T07:19:41.247Z,14.13
2023-05-05T07:22:12.977Z,14.19
2023-05-05T07:24:41.993Z,14.34
2023-05-05T07:27:08.705Z,14.53
2023-05-05T07:29:37.609Z,14.71
2023-05-05T07:32:06.649Z,14.87
2023-05-05T07:34:33.976Z,15.01
2023-05-05T07:37:06.279Z,15.10
2023-05-05T07:39:51.438Z,15.21
2023-05-05T07:42:18.170Z,15.32
2023-05-05T07:44:47.856Z,15.40
2023-05-05T07:47:14.627Z,15.46
2023-05-05T07:49:43.709Z,15.48
2023-05-05T07:52:12.828Z,15.50
2023-05-05T07:54:40.648Z,15.54
2023-05-05T07:57:12.014Z,15.61
2023-05-05T07:59:46.367Z,15.71
2023-05-05T08:02:13.613Z,15.82
2023-05-05T08:04:43.098Z,15.87
2023-05-05T08:07:09.834Z,15.94
2023-05-05T08:09:37.912Z,15.99
2023-05-05T08:12:04.983Z,16.06
2023-05-05T08:14:34.727Z,16.15
2023-05-05T08:17:01.272Z,16.28
2023-05-05T08:19:32.656Z,16.44
2023-05-05T08:22:01.668Z,16.60
2023-05-05T08:24:28.193Z,16.69
2023-05-05T08:26:56.149Z,16.82
2023-05-05T08:29:25.464Z,16.95
2023-05-05T08:31:52.566Z,17.06
2023-05-05T08:34:21.726Z,17.11
2023-05-05T08:36:50.420Z,17.17
2023-05-05T08:39:17.301Z,17.31
2023-05-05T08:41:43.920Z,17.42
2023-05-05T08:44:11.629Z,17.56
2023-05-05T08:46:38.847Z,17.70
2023-05-05T08:49:17.896Z,17.79
2023-05-05T08:51:46.082Z,17.83
2023-05-05T08:54:19.523Z,17.89
2023-05-05T08:56:50.304Z,17.88
2023-05-05T08:59:22.853Z,17.92
2023-05-05T09:01:49.997Z,18.04
2023-05-05T09:04:18.481Z,18.18
2023-05-05T09:06:45.104Z,18.26
2023-05-05T09:09:16.199Z,18.34
2023-05-05T09:11:51.189Z,18.51
2023-05-05T09:14:18.121Z,18.66
2023-05-05T09:16:44.595Z,18.76
2023-05-05T09:19:13.450Z,18.82
2023-05-05T09:21:52.992Z,18.84
2023-05-05T09:24:22.140Z,18.91
2023-05-05T09:26:50.803Z,18.98
2023-05-05T09:29:21.852Z,19.04
2023-05-05T09:32:07.845Z,19.06
2023-05-05T09:34:35.091Z,19.10
2023-05-05T09:37:05.418Z,19.14
2023-05-05T09:39:32.001Z,19.24
2023-05-05T09:42:03.823Z,19.35
2023-05-05T09:44:37.342Z,19.41
2023-05-05T09:47:09.341Z,19.44
2023-05-05T09:49:41.813Z,19.43
2023-05-05T09:52:14.188Z,19.51
2023-05-05T09:54:44.625Z,19.54
2023-05-05T09:57:31.842Z,19.63
2023-05-05T10:00:05.680Z,19.73
2023-05-05T10:02:37.497Z,19.75
2023-05-05T10:05:06.433Z,19.86
2023-05-05T10:07:33.159Z,19.95
2023-05-05T10:09:59.841Z,19.94
2023-05-05T10:12:29.586Z,19.97
2023-05-05T10:15:03.695Z,19.98
2023-05-05T10:17:35.173Z,20.05
2023-05-05T10:20:07.605Z,20.11
2023-05-05T10:22:48.386Z,20.17
2023-05-05T10:25:23.065Z,20.16
2023-05-05T10:27:54.920Z,20.09
2023-05-05T10:30:29.405Z,20.13
2023-05-05T10:35:48.084Z,20.11
2023-05-05T10:38:17.909Z,20.11
2023-05-05T10:40:48.081Z,20.01
2023-05-05T10:43:15.086Z,19.86
2023-05-05T10:45:42.401Z,19.83
2023-05-05T10:48:17.567Z,19.82
2023-05-05T10:50:55.899Z,19.76
2023-05-05T10:53:32.351Z,19.74
2023-05-05T10:56:21.062Z,19.76
2023-05-05T10:58:59.057Z,19.90
2023-05-05T11:01:34.684Z,19.99
2023-05-05T11:04:22.378Z,19.98
2023-05-05T11:07:23.489Z,20.05
2023-05-05T11:09:57.869Z,20.12
2023-05-05T11:12:24.533Z,20.23
2023-05-05T11:15:25.548Z,20.25
2023-05-05T11:17:58.575Z,20.38
2023-05-05T11:20:39.483Z,20.46
2023-05-05T11:23:06.213Z,20.50
2023-05-05T11:25:36.298Z,20.55
2023-05-05T11:28:14.083Z,20.48
2023-05-05T11:30:56.172Z,20.39
2023-05-05T11:33:29.519Z,20.21
2023-05-05T11:36:01.817Z,20.00
2023-05-05T11:39:08.932Z,19.83
2023-05-05T11:42:05.968Z,19.63
2023-05-05T11:44:36.190Z,19.54
2023-05-05T11:47:08.152Z,19.47
2023-05-05T11:49:38.613Z,19.43
2023-05-05T11:52:10.560Z,19.39
2023-05-05T11:54:49.620Z,19.37
2023-05-05T11:57:20.956Z,19.32
2023-05-05T11:59:58.188Z,19.29
2023-05-05T12:02:28.916Z,19.22
2023-05-05T12:04:59.076Z,19.22
2023-05-05T12:07:30.664Z,19.22
2023-05-05T12:09:57.300Z,19.22
2023-05-05T12:12:36.100Z,19.17
2023-05-05T12:15:03.456Z,19.15
2023-05-05T12:18:00.125Z,19.15
2023-05-05T12:20:31.047Z,19.14
2023-05-05T12:23:03.512Z,19.11
2023-05-05T12:25:37.469Z,19.04
2023-05-05T12:28:10.389Z,18.93
2023-05-05T12:30:39.240Z,18.84
2023-05-05T12:33:08.163Z,18.83
2023-05-05T12:35:35.238Z,18.82
2023-05-05T12:38:04.136Z,18.80
2023-05-05T12:40:55.184Z,18.74
2023-05-05T12:43:26.370Z,18.70
2023-05-05T12:45:59.024Z,18.68
2023-05-05T12:48:30.084Z,18.68
2023-05-05T12:51:20.323Z,18.70
2023-05-05T12:53:48.090Z,18.74
2023-05-05T12:56:41.173Z,18.77
2023-05-05T12:59:11.192Z,18.75
2023-05-05T13:01:53.777Z,18.68
2023-05-05T13:04:22.388Z,18.68
2023-05-05T13:07:06.669Z,18.69
2023-05-05T13:37:23.538Z,18.66
2023-05-05T13:39:51.865Z,18.60
2023-05-05T13:42:22.482Z,18.51
2023-05-05T13:44:50.630Z,18.49
2023-05-05T13:47:21.671Z,18.48
2023-05-05T13:49:52.325Z,18.46
2023-05-05T13:52:22.372Z,18.42
2023-05-05T13:54:55.409Z,18.43
2023-05-05T13:57:25.860Z,18.41
2023-05-05T13:59:56.428Z,18.38
2023-05-05T14:02:27.099Z,18.34
2023-05-05T14:04:55.262Z,18.23
2023-05-05T14:07:23.276Z,18.17
2023-05-05T14:10:05.447Z,18.12
2023-05-05T14:12:36.077Z,18.12
2023-05-05T14:15:04.319Z,18.16
2023-05-05T14:17:34.940Z,18.15
2023-05-05T14:20:05.443Z,18.11
2023-05-05T14:22:36.406Z,18.11
2023-05-05T14:25:07.757Z,18.09
2023-05-05T14:27:35.953Z,18.06
2023-05-05T14:30:08.841Z,18.06
2023-05-05T14:32:39.016Z,18.07
2023-05-05T14:35:09.930Z,18.07
2023-05-05T14:37:40.277Z,18.10
2023-05-05T14:40:09.263Z,18.07
2023-05-05T14:42:39.721Z,18.05
2023-05-05T14:45:11.282Z,18.01
2023-05-05T14:47:39.273Z,18.01
2023-05-05T14:50:09.740Z,18.01
2023-05-05T14:52:40.209Z,17.99
2023-05-05T14:55:08.857Z,17.97
2023-05-05T14:57:39.581Z,17.96
2023-05-05T15:00:12.836Z,17.94
2023-05-05T15:02:48.193Z,17.95
2023-05-05T15:05:18.504Z,17.94
2023-05-05T15:07:46.584Z,17.92
2023-05-05T15:10:15.010Z,17.91
2023-05-05T15:12:43.510Z,17.88
2023-05-05T15:15:11.844Z,17.86
2023-05-05T15:17:41.843Z,17.85
2023-05-05T15:20:10.625Z,17.89
2023-05-05T15:22:38.584Z,17.84
2023-05-05T15:25:12.327Z,17.80
2023-05-05T15:27:44.817Z,17.81
2023-05-05T15:30:14.126Z,17.80
2023-05-05T15:32:42.285Z,17.76
2023-05-05T15:35:12.758Z,17.72
2023-05-05T15:37:42.626Z,17.63
2023-05-05T15:40:10.903Z,17.58
2023-05-05T15:42:38.785Z,17.51
2023-05-05T15:45:08.277Z,17.47
2023-05-05T15:47:36.285Z,17.48
2023-05-05T15:50:07.993Z,17.39
2023-05-05T15:52:36.215Z,17.34
2023-05-05T15:55:04.597Z,17.25
2023-05-05T15:57:39.824Z,17.23
2023-05-05T16:00:09.294Z,17.19
2023-05-05T16:02:38.477Z,17.17
2023-05-05T16:05:09.711Z,17.14
2023-05-05T16:07:38.370Z,17.09
2023-05-05T16:10:07.392Z,17.06
2023-05-05T16:12:37.484Z,16.99
2023-05-05T16:15:06.071Z,16.92
2023-05-05T16:17:38.830Z,16.87
2023-05-05T16:20:10.622Z,16.77
2023-05-05T16:22:43.422Z,16.75
2023-05-05T16:25:11.455Z,16.70
2023-05-05T16:27:39.497Z,16.67
2023-05-05T16:30:12.849Z,16.65
2023-05-05T16:32:41.035Z,16.63
2023-05-05T16:35:16.314Z,16.63
2023-05-05T16:37:46.547Z,16.57
2023-05-05T16:40:15.890Z,16.53
2023-05-05T16:42:44.591Z,16.49
2023-05-05T16:45:15.611Z,16.45
2023-05-05T16:47:45.989Z,16.41
2023-05-05T16:50:17.375Z,16.36
2023-05-05T16:52:47.698Z,16.29
2023-05-05T16:55:17.864Z,16.25
2023-05-05T16:57:48.282Z,16.29
2023-05-05T17:00:18.514Z,16.29
2023-05-05T17:02:51.570Z,16.23
2023-05-05T17:05:19.623Z,16.22
2023-05-05T17:07:48.340Z,16.15
2023-05-05T17:10:16.543Z,16.07
2023-05-05T17:12:46.900Z,16.01
2023-05-05T17:15:15.105Z,15.98
2023-05-05T17:17:43.294Z,15.89
2023-05-05T17:20:12.058Z,15.78
2023-05-05T17:22:39.939Z,15.76
2023-05-05T17:25:10.690Z,15.71
2023-05-05T17:27:41.794Z,15.67
2023-05-05T17:30:10.072Z,15.68
2023-05-05T17:32:41.034Z,15.68
2023-05-05T17:35:12.360Z,15.61
2023-05-05T17:37:40.590Z,15.59
2023-05-05T17:40:11.127Z,15.54
2023-05-05T17:42:41.633Z,15.49
2023-05-05T17:45:14.557Z,15.42
2023-05-05T17:47:42.452Z,15.37
2023-05-05T17:50:12.636Z,15.34
2023-05-05T17:52:41.104Z,15.34
2023-05-05T17:55:09.492Z,15.37
2023-05-05T17:57:37.790Z,15.31
2023-05-05T18:00:06.594Z,15.24
2023-05-05T18:02:40.418Z,15.22
2023-05-05T18:05:13.182Z,15.19
2023-05-05T18:07:43.697Z,15.16
2023-05-05T18:10:14.175Z,15.14
2023-05-05T18:12:44.696Z,15.12
2023-05-05T18:15:17.484Z,15.06
2023-05-05T18:17:48.116Z,15.00
2023-05-05T18:20:16.079Z,14.91
2023-05-05T18:22:45.783Z,14.83
2023-05-05T18:25:19.109Z,14.80
2023-05-05T18:27:52.040Z,14.73
2023-05-05T18:30:26.982Z,14.68
2023-05-05T18:32:59.710Z,14.65
2023-05-05T18:35:31.689Z,14.59
2023-05-05T18:38:10.206Z,14.50
2023-05-05T18:40:40.623Z,14.44
2023-05-05T18:43:11.139Z,14.36
2023-05-05T18:45:50.252Z,14.30
2023-05-05T18:48:21.548Z,14.26
2023-05-05T18:50:51.393Z,14.19
2023-05-05T18:53:21.836Z,14.15
2023-05-05T18:56:24.846Z,14.14
2023-05-05T18:58:52.921Z,14.03
2023-05-05T19:01:23.980Z,13.98
2023-05-05T19:03:56.244Z,14.00
2023-05-05T19:06:24.164Z,13.97
2023-05-05T19:08:55.466Z,13.95
2023-05-05T19:11:26.027Z,13.92
2023-05-05T19:13:58.677Z,13.92
2023-05-05T19:16:27.785Z,13.89
2023-05-05T19:19:01.137Z,13.87
2023-05-05T19:21:31.650Z,13.83
2023-05-05T19:23:59.897Z,13.78
2023-05-05T19:26:30.674Z,13.70
2023-05-05T19:29:01.176Z,13.71
2023-05-05T19:31:30.959Z,13.69
2023-05-05T19:34:07.902Z,13.68
2023-05-05T19:36:35.856Z,13.65
2023-05-05T19:39:06.337Z,13.64
2023-05-05T19:41:37.555Z,13.61
2023-05-05T19:44:05.908Z,13.57
2023-05-05T19:46:33.950Z,13.53
2023-05-05T19:49:04.488Z,13.50
2023-05-05T19:51:34.811Z,13.47
2023-05-05T19:54:02.656Z,13.44
2023-05-05T19:56:30.570Z,13.40
2023-05-05T19:59:02.283Z,13.39
2023-05-05T20:01:30.425Z,13.35
2023-05-05T20:03:58.553Z,13.32
2023-05-05T20:06:29.742Z,13.28
2023-05-05T20:08:57.893Z,13.22
2023-05-05T20:11:39.263Z,13.20
2023-05-05T20:14:11.151Z,13.16
2023-05-05T20:16:41.418Z,13.13
2023-05-05T20:19:12.152Z,13.09
2023-05-05T20:21:42.437Z,13.07
2023-05-05T20:24:12.937Z,13.03
2023-05-05T20:26:41.432Z,13.00
2023-05-05T20:29:15.182Z,12.99
2023-05-05T20:31:43.100Z,12.98
2023-05-05T20:34:16.231Z,12.94
2023-05-05T20:36:44.343Z,12.92
2023-05-05T20:39:18.072Z,12.90
2023-05-05T20:41:48.433Z,12.90
2023-05-05T20:44:18.754Z,12.85
2023-05-05T20:46:47.524Z,12.82
2023-05-05T20:49:17.999Z,12.82
2023-05-05T20:51:48.165Z,12.77
2023-05-05T20:54:18.417Z,12.78
2023-05-05T20:56:46.544Z,12.76
2023-05-05T20:59:17.246Z,12.71
2023-05-05T21:01:49.952Z,12.71
2023-05-05T21:04:17.782Z,12.66
2023-05-05T21:06:50.288Z,12.65
2023-05-05T21:09:18.166Z,12.63
2023-05-05T21:11:49.058Z,12.60
2023-05-05T21:14:19.179Z,12.57
2023-05-05T21:16:49.680Z,12.57
2023-05-05T21:19:17.701Z,12.52
2023-05-05T21:21:51.749Z,12.52
2023-05-05T21:24:22.137Z,12.46
2023-05-05T21:26:56.342Z,12.46
2023-05-05T21:29:29.387Z,12.44
2023-05-05T21:31:59.926Z,12.37
2023-05-05T21:34:30.387Z,12.32
2023-05-05T21:37:00.994Z,12.25
2023-05-05T21:39:32.493Z,12.24
2023-05-05T21:42:03.084Z,12.22
2023-05-05T21:44:33.540Z,12.19
2023-05-05T21:47:05.403Z,12.15
2023-05-05T21:49:33.655Z,12.11
2023-05-05T21:52:01.606Z,12.06
2023-05-05T21:54:30.114Z,12.02
2023-05-05T21:57:00.566Z,12.02
2023-05-05T21:59:28.486Z,12.02
2023-05-05T22:01:56.597Z,11.93
2023-05-05T22:04:27.167Z,11.91
2023-05-05T22:07:00.133Z,11.86
2023-05-05T22:09:28.199Z,11.84
2023-05-05T22:11:58.095Z,11.83
2023-05-05T22:14:28.272Z,11.80
2023-05-05T22:16:56.335Z,11.78
2023-05-05T22:19:26.209Z,11.73
2023-05-05T22:21:57.412Z,11.68
2023-05-05T22:24:25.603Z,11.64
2023-05-05T22:26:54.120Z,11.68
2023-05-05T22:29:25.420Z,11.66
2023-05-05T22:31:53.518Z,11.63
2023-05-05T22:34:22.220Z,11.58
2023-05-05T22:36:50.091Z,11.57
2023-05-05T22:39:18.669Z,11.52
2023-05-05T22:41:46.691Z,11.49
2023-05-05T22:44:14.693Z,11.47
2023-05-05T22:46:47.389Z,11.45
2023-05-05T22:49:20.325Z,11.43
2023-05-05T22:51:51.268Z,11.38
2023-05-05T22:54:21.526Z,11.36
2023-05-05T22:56:53.112Z,11.35
2023-05-05T22:59:20.946Z,11.31
2023-05-05T23:01:48.736Z,11.27
2023-05-05T23:04:19.018Z,11.25
2023-05-05T23:06:49.756Z,11.25
2023-05-05T23:09:19.863Z,11.25
2023-05-05T23:11:47.716Z,11.25
2023-05-05T23:14:19.508Z,11.24
2023-05-05T23:16:49.698Z,11.21
2023-05-05T23:19:20.362Z,11.13
2023-05-05T23:21:53.654Z,11.10
2023-05-05T23:24:22.274Z,11.06
2023-05-05T23:26:52.427Z,10.99
2023-05-05T23:29:25.089Z,10.94
2023-05-05T23:31:55.789Z,10.96
2023-05-05T23:34:24.035Z,10.91
2023-05-05T23:36:51.976Z,10.88
2023-05-05T23:39:19.976Z,10.88
2023-05-05T23:41:50.282Z,10.87
2023-05-05T23:44:18.079Z,10.86
2023-05-05T23:46:48.555Z,10.85
2023-05-05T23:49:19.106Z,10.80
2023-05-05T23:51:47.095Z,10.79
2023-05-05T23:54:19.620Z,10.78
2023-05-05T23:56:50.062Z,10.78
2023-05-05T23:59:18.131Z,10.76
